CMP490 MPTO-SKCC
Flight info
| Callsign | CMP490 |
|---|---|
| Flight time | 1h 14m |
| Altitude | 31000 |
| Route | REMA1A REMAL KUBEK UP790 EJA ESNUT ESNU2K |
| Aircraft | B738/M-SDE3FGHIRWY/S |
Departure
| Time | 2026-04-14 21:31 |
|---|---|
| Airport | Tocumen International Airport (MPTO) |
Arrival
| Time | 2026-04-14 22:46 |
|---|---|
| Airport | Camilo Daza International Airport (SKCC) |
| Time | Latitude | Longitude | Altitude | Speed | Heading |
|---|---|---|---|---|---|
| 2026-04-14 21:05 | 9.05989 | -79.38917 | 29 ft | 0 kts | 121° |
| 2026-04-14 21:17 | 9.05993 | -79.38924 | 29 ft | 4 kts | 123° |
| 2026-04-14 21:17 | 9.06010 | -79.38944 | 29 ft | 4 kts | 143° |
| 2026-04-14 21:17 | 9.06032 | -79.38954 | 29 ft | 4 kts | 188° |
| 2026-04-14 21:17 | 9.06047 | -79.38949 | 29 ft | 1 kts | 220° |
| 2026-04-14 21:18 | 9.06049 | -79.38947 | 29 ft | 0 kts | 220° |
| 2026-04-14 21:21 | 9.06047 | -79.38948 | 29 ft | 1 kts | 220° |
| 2026-04-14 21:21 | 9.06031 | -79.38962 | 29 ft | 6 kts | 220° |
| 2026-04-14 21:22 | 9.05982 | -79.38999 | 29 ft | 11 kts | 213° |
| 2026-04-14 21:22 | 9.05903 | -79.39046 | 29 ft | 15 kts | 208° |
| 2026-04-14 21:22 | 9.05813 | -79.39097 | 29 ft | 15 kts | 210° |
| 2026-04-14 21:22 | 9.05728 | -79.39113 | 29 ft | 13 kts | 135° |
| 2026-04-14 21:23 | 9.05678 | -79.39032 | 29 ft | 14 kts | 121° |
| 2026-04-14 21:23 | 9.05625 | -79.38962 | 29 ft | 13 kts | 161° |
| 2026-04-14 21:23 | 9.05542 | -79.38999 | 29 ft | 14 kts | 211° |
| 2026-04-14 21:23 | 9.05450 | -79.39053 | 29 ft | 16 kts | 210° |
| 2026-04-14 21:24 | 9.05346 | -79.39112 | 29 ft | 17 kts | 208° |
| 2026-04-14 21:24 | 9.05236 | -79.39175 | 29 ft | 18 kts | 210° |
| 2026-04-14 21:24 | 9.05131 | -79.39235 | 29 ft | 17 kts | 209° |
| 2026-04-14 21:24 | 9.05022 | -79.39296 | 29 ft | 16 kts | 210° |
| 2026-04-14 21:25 | 9.04927 | -79.39350 | 29 ft | 16 kts | 209° |
| 2026-04-14 21:25 | 9.04874 | -79.39379 | 29 ft | 7 kts | 199° |
| 2026-04-14 21:25 | 9.04847 | -79.39377 | 29 ft | 3 kts | 154° |
| 2026-04-14 21:25 | 9.04844 | -79.39375 | 29 ft | 0 kts | 144° |
| 2026-04-14 21:28 | 9.04843 | -79.39375 | 29 ft | 1 kts | 143° |
| 2026-04-14 21:28 | 9.04833 | -79.39367 | 29 ft | 3 kts | 143° |
| 2026-04-14 21:28 | 9.04816 | -79.39339 | 29 ft | 8 kts | 117° |
| 2026-04-14 21:29 | 9.04788 | -79.39290 | 30 ft | 6 kts | 122° |
| 2026-04-14 21:29 | 9.04778 | -79.39257 | 30 ft | 5 kts | 75° |
| 2026-04-14 21:29 | 9.04794 | -79.39242 | 30 ft | 0 kts | 26° |
| 2026-04-14 21:30 | 9.04795 | -79.39242 | 30 ft | 2 kts | 26° |
| 2026-04-14 21:30 | 9.04924 | -79.39169 | 31 ft | 52 kts | 30° |
| 2026-04-14 21:30 | 9.05443 | -79.38875 | 29 ft | 117 kts | 29° |
| 2026-04-14 21:31 | 9.06311 | -79.38384 | 60 ft | 165 kts | 27° |
| 2026-04-14 21:31 | 9.07313 | -79.37761 | 645 ft | 169 kts | 27° |
| 2026-04-14 21:31 | 9.08273 | -79.37082 | 1304 ft | 166 kts | 45° |
| 2026-04-14 21:31 | 9.08730 | -79.35973 | 1865 ft | 186 kts | 87° |
| 2026-04-14 21:32 | 9.08552 | -79.34662 | 2646 ft | 190 kts | 92° |
| 2026-04-14 21:32 | 9.08357 | -79.33350 | 3430 ft | 194 kts | 92° |
| 2026-04-14 21:32 | 9.08144 | -79.31909 | 3742 ft | 220 kts | 93° |
| 2026-04-14 21:32 | 9.07904 | -79.30321 | 4056 ft | 239 kts | 93° |
| 2026-04-14 21:33 | 9.07640 | -79.28618 | 4470 ft | 252 kts | 94° |
| 2026-04-14 21:33 | 9.07361 | -79.26835 | 5053 ft | 261 kts | 95° |
| 2026-04-14 21:33 | 9.07075 | -79.25024 | 5874 ft | 263 kts | 95° |
| 2026-04-14 21:33 | 9.06785 | -79.23180 | 6571 ft | 267 kts | 95° |
| 2026-04-14 21:34 | 9.06495 | -79.21336 | 6903 ft | 264 kts | 95° |
| 2026-04-14 21:34 | 9.06205 | -79.19479 | 7004 ft | 269 kts | 95° |
| 2026-04-14 21:34 | 9.05912 | -79.17602 | 7001 ft | 270 kts | 94° |
| 2026-04-14 21:34 | 9.05714 | -79.15719 | 7018 ft | 269 kts | 88° |
| 2026-04-14 21:35 | 9.05671 | -79.13778 | 7284 ft | 282 kts | 87° |
| 2026-04-14 21:35 | 9.05651 | -79.11782 | 8004 ft | 286 kts | 88° |
| 2026-04-14 21:35 | 9.05629 | -79.09763 | 8774 ft | 288 kts | 89° |
| 2026-04-14 21:35 | 9.05600 | -79.07723 | 9512 ft | 292 kts | 89° |
| 2026-04-14 21:36 | 9.05568 | -79.05638 | 10151 ft | 299 kts | 89° |
| 2026-04-14 21:36 | 9.05531 | -79.03526 | 10812 ft | 302 kts | 90° |
| 2026-04-14 21:36 | 9.05490 | -79.01379 | 11461 ft | 307 kts | 91° |
| 2026-04-14 21:36 | 9.05447 | -78.99228 | 12096 ft | 311 kts | 91° |
| 2026-04-14 21:37 | 9.05402 | -78.97025 | 12764 ft | 315 kts | 91° |
| 2026-04-14 21:37 | 9.05355 | -78.94789 | 13362 ft | 322 kts | 92° |
| 2026-04-14 21:37 | 9.05307 | -78.92503 | 13923 ft | 327 kts | 92° |
| 2026-04-14 21:37 | 9.05260 | -78.90204 | 14569 ft | 328 kts | 91° |
| 2026-04-14 21:38 | 9.05212 | -78.87880 | 15189 ft | 331 kts | 91° |
| 2026-04-14 21:38 | 9.05162 | -78.85535 | 15719 ft | 337 kts | 91° |
| 2026-04-14 21:38 | 9.05027 | -78.83167 | 16295 ft | 340 kts | 102° |
| 2026-04-14 21:38 | 9.04158 | -78.80931 | 16701 ft | 349 kts | 120° |
| 2026-04-14 21:39 | 9.02867 | -78.78779 | 16814 ft | 366 kts | 123° |
| 2026-04-14 21:39 | 9.01449 | -78.76579 | 17036 ft | 380 kts | 124° |
| 2026-04-14 21:39 | 8.99979 | -78.74337 | 17301 ft | 390 kts | 124° |
| 2026-04-14 21:39 | 8.98475 | -78.72038 | 17761 ft | 395 kts | 124° |
| 2026-04-14 21:40 | 8.96963 | -78.69707 | 18343 ft | 394 kts | 123° |
| 2026-04-14 21:40 | 8.95463 | -78.67377 | 18827 ft | 396 kts | 123° |
| 2026-04-14 21:40 | 8.93964 | -78.65033 | 19297 ft | 398 kts | 123° |
| 2026-04-14 21:40 | 8.92464 | -78.62679 | 19727 ft | 401 kts | 123° |
| 2026-04-14 21:41 | 8.90944 | -78.60289 | 20084 ft | 405 kts | 123° |
| 2026-04-14 21:41 | 8.89415 | -78.57881 | 20475 ft | 409 kts | 123° |
| 2026-04-14 21:41 | 8.87861 | -78.55432 | 20725 ft | 417 kts | 123° |
| 2026-04-14 21:41 | 8.86300 | -78.52974 | 21267 ft | 414 kts | 122° |
| 2026-04-14 21:42 | 8.84742 | -78.50520 | 21695 ft | 417 kts | 122° |
| 2026-04-14 21:42 | 8.83172 | -78.48049 | 22152 ft | 417 kts | 122° |
| 2026-04-14 21:42 | 8.81618 | -78.45602 | 22537 ft | 420 kts | 122° |
| 2026-04-14 21:42 | 8.80031 | -78.43104 | 22844 ft | 425 kts | 122° |
| 2026-04-14 21:43 | 8.78436 | -78.40594 | 23284 ft | 425 kts | 122° |
| 2026-04-14 21:43 | 8.76828 | -78.38064 | 23534 ft | 430 kts | 122° |
| 2026-04-14 21:43 | 8.75202 | -78.35507 | 23850 ft | 431 kts | 122° |
| 2026-04-14 21:43 | 8.73581 | -78.32959 | 24208 ft | 432 kts | 122° |
| 2026-04-14 21:44 | 8.71951 | -78.30396 | 24560 ft | 433 kts | 122° |
| 2026-04-14 21:44 | 8.70329 | -78.27847 | 24991 ft | 431 kts | 122° |
| 2026-04-14 21:44 | 8.68699 | -78.25285 | 25271 ft | 434 kts | 122° |
| 2026-04-14 21:44 | 8.67063 | -78.22714 | 25574 ft | 437 kts | 122° |
| 2026-04-14 21:45 | 8.65407 | -78.20113 | 25799 ft | 441 kts | 122° |
| 2026-04-14 21:45 | 8.63741 | -78.17497 | 26082 ft | 443 kts | 122° |
| 2026-04-14 21:45 | 8.62077 | -78.14883 | 26438 ft | 443 kts | 122° |
| 2026-04-14 21:45 | 8.60407 | -78.12261 | 26706 ft | 445 kts | 122° |
| 2026-04-14 21:46 | 8.58728 | -78.09626 | 27049 ft | 446 kts | 122° |
| 2026-04-14 21:46 | 8.57046 | -78.06986 | 27276 ft | 449 kts | 122° |
| 2026-04-14 21:46 | 8.55352 | -78.04328 | 27554 ft | 451 kts | 122° |
| 2026-04-14 21:46 | 8.53652 | -78.01661 | 27816 ft | 453 kts | 122° |
| 2026-04-14 21:47 | 8.51947 | -77.98987 | 28228 ft | 451 kts | 122° |
| 2026-04-14 21:47 | 8.50261 | -77.96344 | 28766 ft | 446 kts | 122° |
| 2026-04-14 21:47 | 8.48581 | -77.93709 | 29129 ft | 446 kts | 122° |
| 2026-04-14 21:47 | 8.46913 | -77.91095 | 29450 ft | 447 kts | 122° |
| 2026-04-14 21:48 | 8.45231 | -77.88457 | 29800 ft | 447 kts | 122° |
| 2026-04-14 21:48 | 8.43552 | -77.85827 | 30182 ft | 445 kts | 123° |
| 2026-04-14 21:48 | 8.41871 | -77.83194 | 30454 ft | 446 kts | 123° |
| 2026-04-14 21:48 | 8.40187 | -77.80556 | 30708 ft | 447 kts | 123° |
| 2026-04-14 21:49 | 8.38510 | -77.77930 | 30818 ft | 446 kts | 123° |
| 2026-04-14 21:49 | 8.36826 | -77.75293 | 30844 ft | 444 kts | 123° |
| 2026-04-14 21:49 | 8.33481 | -77.70058 | 30842 ft | 445 kts | 123° |
| 2026-04-14 21:50 | 8.30106 | -77.64776 | 30855 ft | 449 kts | 123° |
| 2026-04-14 21:50 | 8.26712 | -77.59467 | 30848 ft | 450 kts | 123° |
| 2026-04-14 21:51 | 8.23355 | -77.54217 | 30828 ft | 441 kts | 123° |
| 2026-04-14 21:51 | 8.20044 | -77.49043 | 30852 ft | 442 kts | 123° |
| 2026-04-14 21:52 | 8.16702 | -77.43821 | 30853 ft | 443 kts | 123° |
| 2026-04-14 21:52 | 8.13345 | -77.38577 | 30844 ft | 445 kts | 123° |
| 2026-04-14 21:53 | 8.09980 | -77.33321 | 30830 ft | 447 kts | 123° |
| 2026-04-14 21:53 | 8.06599 | -77.28044 | 30831 ft | 448 kts | 124° |
| 2026-04-14 21:54 | 8.03790 | -77.23651 | 30838 ft | 448 kts | 122° |
| 2026-04-14 21:54 | 8.01336 | -77.17878 | 30836 ft | 447 kts | 107° |
| 2026-04-14 21:55 | 7.99644 | -77.11842 | 30835 ft | 446 kts | 106° |
| 2026-04-14 21:55 | 7.97979 | -77.05854 | 30816 ft | 445 kts | 106° |
| 2026-04-14 21:56 | 7.96275 | -76.99850 | 30820 ft | 445 kts | 106° |
| 2026-04-14 21:56 | 7.94554 | -76.93863 | 30816 ft | 445 kts | 106° |
| 2026-04-14 21:57 | 7.92822 | -76.87864 | 30827 ft | 445 kts | 106° |
| 2026-04-14 21:57 | 7.91087 | -76.81858 | 30827 ft | 446 kts | 106° |
| 2026-04-14 21:58 | 7.89352 | -76.75849 | 30836 ft | 446 kts | 107° |
| 2026-04-14 21:58 | 7.87613 | -76.69831 | 30831 ft | 447 kts | 107° |
| 2026-04-14 21:59 | 7.85872 | -76.63811 | 30829 ft | 447 kts | 106° |
| 2026-04-14 21:59 | 7.84140 | -76.57822 | 30836 ft | 447 kts | 106° |
| 2026-04-14 22:00 | 7.82400 | -76.51812 | 30834 ft | 446 kts | 106° |
| 2026-04-14 22:00 | 7.80658 | -76.45795 | 30852 ft | 446 kts | 106° |
| 2026-04-14 22:01 | 7.78920 | -76.39796 | 30865 ft | 446 kts | 107° |
| 2026-04-14 22:01 | 7.77175 | -76.33778 | 30868 ft | 447 kts | 107° |
| 2026-04-14 22:02 | 7.75432 | -76.27771 | 30863 ft | 446 kts | 106° |
| 2026-04-14 22:02 | 7.73695 | -76.21785 | 30871 ft | 445 kts | 106° |
| 2026-04-14 22:03 | 7.71957 | -76.15800 | 30868 ft | 444 kts | 106° |
| 2026-04-14 22:03 | 7.70219 | -76.09821 | 30873 ft | 444 kts | 106° |
| 2026-04-14 22:04 | 7.68481 | -76.03845 | 30870 ft | 445 kts | 106° |
| 2026-04-14 22:04 | 7.66751 | -75.97897 | 30868 ft | 445 kts | 106° |
| 2026-04-14 22:05 | 7.65006 | -75.91902 | 30911 ft | 445 kts | 106° |
| 2026-04-14 22:05 | 7.63263 | -75.85916 | 30908 ft | 445 kts | 106° |
| 2026-04-14 22:06 | 7.61516 | -75.79923 | 30915 ft | 445 kts | 106° |
| 2026-04-14 22:06 | 7.59768 | -75.73928 | 30899 ft | 446 kts | 106° |
| 2026-04-14 22:07 | 7.58018 | -75.67927 | 30909 ft | 445 kts | 106° |
| 2026-04-14 22:07 | 7.56281 | -75.61975 | 30901 ft | 446 kts | 106° |
| 2026-04-14 22:08 | 7.54532 | -75.55986 | 30893 ft | 446 kts | 106° |
| 2026-04-14 22:08 | 7.52780 | -75.49992 | 30897 ft | 445 kts | 106° |
| 2026-04-14 22:09 | 7.51031 | -75.44008 | 30887 ft | 445 kts | 106° |
| 2026-04-14 22:09 | 7.49278 | -75.38016 | 30930 ft | 445 kts | 106° |
| 2026-04-14 22:10 | 7.47525 | -75.32028 | 30912 ft | 445 kts | 106° |
| 2026-04-14 22:10 | 7.45773 | -75.26043 | 30928 ft | 446 kts | 106° |
| 2026-04-14 22:11 | 7.44015 | -75.20041 | 30911 ft | 446 kts | 106° |
| 2026-04-14 22:11 | 7.42256 | -75.14044 | 30900 ft | 445 kts | 106° |
| 2026-04-14 22:12 | 7.40512 | -75.08097 | 30905 ft | 445 kts | 106° |
| 2026-04-14 22:12 | 7.38755 | -75.02109 | 30898 ft | 445 kts | 106° |
| 2026-04-14 22:13 | 7.36997 | -74.96121 | 30904 ft | 446 kts | 106° |
| 2026-04-14 22:13 | 7.35238 | -74.90134 | 30899 ft | 446 kts | 106° |
| 2026-04-14 22:14 | 7.33477 | -74.84144 | 30906 ft | 446 kts | 106° |
| 2026-04-14 22:14 | 7.31713 | -74.78144 | 30917 ft | 447 kts | 107° |
| 2026-04-14 22:15 | 7.29946 | -74.72140 | 30917 ft | 446 kts | 107° |
| 2026-04-14 22:15 | 7.28193 | -74.66187 | 30920 ft | 446 kts | 107° |
| 2026-04-14 22:16 | 7.26426 | -74.60186 | 30909 ft | 446 kts | 107° |
| 2026-04-14 22:16 | 7.24659 | -74.54190 | 30912 ft | 446 kts | 107° |
| 2026-04-14 22:17 | 7.22892 | -74.48200 | 30900 ft | 446 kts | 107° |
| 2026-04-14 22:17 | 7.21127 | -74.42215 | 30913 ft | 445 kts | 107° |
| 2026-04-14 22:18 | 7.19372 | -74.36267 | 30895 ft | 446 kts | 107° |
| 2026-04-14 22:18 | 7.17593 | -74.30246 | 30893 ft | 446 kts | 107° |
| 2026-04-14 22:19 | 7.14957 | -74.21323 | 30878 ft | 445 kts | 107° |
| 2026-04-14 22:20 | 7.13190 | -74.15348 | 30872 ft | 444 kts | 107° |
| 2026-04-14 22:20 | 7.11426 | -74.09386 | 30877 ft | 444 kts | 107° |
| 2026-04-14 22:21 | 7.09666 | -74.03438 | 30858 ft | 443 kts | 107° |
| 2026-04-14 22:21 | 7.07905 | -73.97489 | 30855 ft | 443 kts | 107° |
| 2026-04-14 22:22 | 7.06144 | -73.91543 | 30840 ft | 443 kts | 107° |
| 2026-04-14 22:22 | 7.04388 | -73.85622 | 30839 ft | 444 kts | 107° |
| 2026-04-14 22:22 | 7.03739 | -73.82583 | 30823 ft | 444 kts | 94° |
| 2026-04-14 22:23 | 7.03840 | -73.79478 | 30849 ft | 444 kts | 81° |
| 2026-04-14 22:23 | 7.04622 | -73.76483 | 30820 ft | 443 kts | 66° |
| 2026-04-14 22:23 | 7.05883 | -73.73663 | 30829 ft | 437 kts | 64° |
| 2026-04-14 22:23 | 7.07158 | -73.70933 | 30810 ft | 424 kts | 64° |
| 2026-04-14 22:24 | 7.08409 | -73.68266 | 30559 ft | 419 kts | 64° |
| 2026-04-14 22:24 | 7.09635 | -73.65636 | 30324 ft | 413 kts | 64° |
| 2026-04-14 22:24 | 7.10842 | -73.63019 | 29967 ft | 411 kts | 64° |
| 2026-04-14 22:24 | 7.12020 | -73.60443 | 29593 ft | 409 kts | 65° |
| 2026-04-14 22:25 | 7.13199 | -73.57849 | 29198 ft | 406 kts | 65° |
| 2026-04-14 22:25 | 7.14367 | -73.55273 | 28809 ft | 403 kts | 65° |
| 2026-04-14 22:25 | 7.15529 | -73.52704 | 28437 ft | 401 kts | 65° |
| 2026-04-14 22:25 | 7.16678 | -73.50161 | 28091 ft | 398 kts | 65° |
| 2026-04-14 22:26 | 7.17822 | -73.47630 | 27730 ft | 395 kts | 65° |
| 2026-04-14 22:26 | 7.18958 | -73.45116 | 27374 ft | 393 kts | 65° |
| 2026-04-14 22:26 | 7.20085 | -73.42620 | 27020 ft | 391 kts | 65° |
| 2026-04-14 22:26 | 7.21211 | -73.40128 | 26663 ft | 389 kts | 65° |
| 2026-04-14 22:27 | 7.22327 | -73.37656 | 26315 ft | 387 kts | 65° |
| 2026-04-14 22:27 | 7.23441 | -73.35190 | 25982 ft | 385 kts | 65° |
| 2026-04-14 22:27 | 7.24549 | -73.32737 | 25626 ft | 384 kts | 65° |
| 2026-04-14 22:27 | 7.25653 | -73.30292 | 25247 ft | 383 kts | 64° |
| 2026-04-14 22:28 | 7.26752 | -73.27857 | 24900 ft | 381 kts | 64° |
| 2026-04-14 22:28 | 7.27850 | -73.25424 | 24525 ft | 381 kts | 64° |
| 2026-04-14 22:28 | 7.28942 | -73.23002 | 24193 ft | 380 kts | 64° |
| 2026-04-14 22:28 | 7.30022 | -73.20609 | 23829 ft | 379 kts | 64° |
| 2026-04-14 22:29 | 7.31118 | -73.18180 | 23463 ft | 379 kts | 64° |
| 2026-04-14 22:29 | 7.32204 | -73.15771 | 23053 ft | 377 kts | 64° |
| 2026-04-14 22:29 | 7.33285 | -73.13375 | 22675 ft | 375 kts | 64° |
| 2026-04-14 22:29 | 7.34361 | -73.10988 | 22292 ft | 373 kts | 64° |
| 2026-04-14 22:30 | 7.35430 | -73.08616 | 21993 ft | 370 kts | 64° |
| 2026-04-14 22:30 | 7.36491 | -73.06263 | 21652 ft | 368 kts | 64° |
| 2026-04-14 22:30 | 7.37550 | -73.03912 | 21299 ft | 367 kts | 64° |
| 2026-04-14 22:30 | 7.38589 | -73.01607 | 20956 ft | 365 kts | 64° |
| 2026-04-14 22:31 | 7.39637 | -72.99281 | 20609 ft | 364 kts | 64° |
| 2026-04-14 22:31 | 7.40681 | -72.96963 | 20265 ft | 362 kts | 64° |
| 2026-04-14 22:31 | 7.41718 | -72.94659 | 19973 ft | 360 kts | 64° |
| 2026-04-14 22:31 | 7.42754 | -72.92358 | 19603 ft | 360 kts | 64° |
| 2026-04-14 22:32 | 7.43790 | -72.90058 | 19252 ft | 360 kts | 64° |
| 2026-04-14 22:32 | 7.44821 | -72.87770 | 18957 ft | 357 kts | 65° |
| 2026-04-14 22:32 | 7.45843 | -72.85496 | 18558 ft | 354 kts | 65° |
| 2026-04-14 22:32 | 7.46852 | -72.83252 | 18203 ft | 348 kts | 64° |
| 2026-04-14 22:33 | 7.47842 | -72.81050 | 17937 ft | 343 kts | 64° |
| 2026-04-14 22:33 | 7.48828 | -72.78858 | 17612 ft | 342 kts | 64° |
| 2026-04-14 22:33 | 7.49931 | -72.76753 | 17264 ft | 339 kts | 50° |
| 2026-04-14 22:33 | 7.51683 | -72.75200 | 16870 ft | 336 kts | 28° |
| 2026-04-14 22:34 | 7.53863 | -72.74360 | 16349 ft | 338 kts | 11° |
| 2026-04-14 22:34 | 7.56176 | -72.73865 | 15808 ft | 343 kts | 9° |
| 2026-04-14 22:34 | 7.58526 | -72.73408 | 15248 ft | 343 kts | 9° |
| 2026-04-14 22:34 | 7.60837 | -72.72961 | 14706 ft | 341 kts | 9° |
| 2026-04-14 22:35 | 7.63156 | -72.72500 | 14165 ft | 339 kts | 9° |
| 2026-04-14 22:35 | 7.65467 | -72.72030 | 13601 ft | 338 kts | 10° |
| 2026-04-14 22:35 | 7.67764 | -72.71557 | 13024 ft | 335 kts | 10° |
| 2026-04-14 22:35 | 7.70041 | -72.71085 | 12447 ft | 332 kts | 11° |
| 2026-04-14 22:36 | 7.72287 | -72.70619 | 11943 ft | 327 kts | 10° |
| 2026-04-14 22:36 | 7.74505 | -72.70149 | 11381 ft | 325 kts | 14° |
| 2026-04-14 22:36 | 7.76526 | -72.69181 | 10972 ft | 319 kts | 37° |
| 2026-04-14 22:36 | 7.78113 | -72.67727 | 10983 ft | 298 kts | 45° |
| 2026-04-14 22:37 | 7.79550 | -72.66200 | 10356 ft | 303 kts | 46° |
| 2026-04-14 22:37 | 7.80960 | -72.64648 | 9936 ft | 300 kts | 47° |
| 2026-04-14 22:37 | 7.82358 | -72.63112 | 9555 ft | 295 kts | 47° |
| 2026-04-14 22:37 | 7.83740 | -72.61610 | 9199 ft | 288 kts | 46° |
| 2026-04-14 22:38 | 7.85078 | -72.60169 | 8880 ft | 281 kts | 47° |
| 2026-04-14 22:38 | 7.86402 | -72.58750 | 8575 ft | 274 kts | 47° |
| 2026-04-14 22:38 | 7.87699 | -72.57366 | 8272 ft | 268 kts | 47° |
| 2026-04-14 22:38 | 7.88971 | -72.56010 | 7982 ft | 263 kts | 47° |
| 2026-04-14 22:39 | 7.90219 | -72.54681 | 7699 ft | 259 kts | 47° |
| 2026-04-14 22:39 | 7.91456 | -72.53364 | 7426 ft | 258 kts | 47° |
| 2026-04-14 22:39 | 7.92705 | -72.52074 | 7140 ft | 256 kts | 40° |
| 2026-04-14 22:39 | 7.94290 | -72.51318 | 6860 ft | 254 kts | 11° |
| 2026-04-14 22:40 | 7.96049 | -72.51122 | 6610 ft | 255 kts | 4° |
| 2026-04-14 22:40 | 7.97812 | -72.51038 | 6311 ft | 252 kts | 4° |
| 2026-04-14 22:40 | 7.99548 | -72.50955 | 6021 ft | 247 kts | 4° |
| 2026-04-14 22:40 | 8.01243 | -72.50864 | 5742 ft | 242 kts | 5° |
| 2026-04-14 22:41 | 8.02348 | -72.50801 | 5559 ft | 238 kts | 4° |
| 2026-04-14 22:41 | 8.03977 | -72.50704 | 5330 ft | 229 kts | 4° |
| 2026-04-14 22:41 | 8.05541 | -72.50653 | 5081 ft | 219 kts | 357° |
| 2026-04-14 22:41 | 8.06956 | -72.51073 | 4829 ft | 209 kts | 329° |
| 2026-04-14 22:42 | 8.07956 | -72.52566 | 4513 ft | 195 kts | 273° |
| 2026-04-14 22:42 | 8.07771 | -72.53459 | 4377 ft | 193 kts | 243° |
| 2026-04-14 22:42 | 8.07067 | -72.54591 | 3993 ft | 195 kts | 239° |
| 2026-04-14 22:42 | 8.06334 | -72.55766 | 3553 ft | 192 kts | 237° |
| 2026-04-14 22:43 | 8.05417 | -72.56651 | 3482 ft | 180 kts | 206° |
| 2026-04-14 22:43 | 8.04206 | -72.56945 | 3344 ft | 184 kts | 181° |
| 2026-04-14 22:43 | 8.02927 | -72.56845 | 3124 ft | 183 kts | 174° |
| 2026-04-14 22:43 | 8.01713 | -72.56554 | 2882 ft | 175 kts | 152° |
| 2026-04-14 22:44 | 8.00662 | -72.55971 | 2674 ft | 171 kts | 149° |
| 2026-04-14 22:44 | 7.99648 | -72.55365 | 2443 ft | 167 kts | 147° |
| 2026-04-14 22:44 | 7.98658 | -72.54762 | 2226 ft | 167 kts | 147° |
| 2026-04-14 22:44 | 7.97660 | -72.54156 | 1984 ft | 166 kts | 147° |
| 2026-04-14 22:45 | 7.96678 | -72.53544 | 1818 ft | 166 kts | 147° |
| 2026-04-14 22:45 | 7.95679 | -72.52944 | 1508 ft | 171 kts | 149° |
| 2026-04-14 22:45 | 7.94665 | -72.52329 | 1284 ft | 170 kts | 147° |
| 2026-04-14 22:45 | 7.93671 | -72.51727 | 1080 ft | 161 kts | 148° |
| 2026-04-14 22:46 | 7.92791 | -72.51193 | 1032 ft | 119 kts | 148° |
| 2026-04-14 22:46 | 7.92334 | -72.50917 | 1022 ft | 24 kts | 149° |
| 2026-04-14 22:46 | 7.92279 | -72.50867 | 1020 ft | 5 kts | 210° |
| 2026-04-14 22:46 | 7.92294 | -72.50893 | 1023 ft | 5 kts | 324° |
| 2026-04-14 22:47 | 7.92326 | -72.50914 | 1022 ft | 6 kts | 330° |
| 2026-04-14 22:47 | 7.92359 | -72.50934 | 1022 ft | 6 kts | 330° |
| 2026-04-14 22:47 | 7.92393 | -72.50952 | 1023 ft | 5 kts | 332° |
| 2026-04-14 22:47 | 7.92426 | -72.50970 | 1022 ft | 5 kts | 330° |
| 2026-04-14 22:48 | 7.92458 | -72.50989 | 1022 ft | 5 kts | 329° |
| 2026-04-14 22:48 | 7.92490 | -72.51009 | 1024 ft | 5 kts | 328° |
| 2026-04-14 22:48 | 7.92526 | -72.51034 | 1027 ft | 8 kts | 327° |
| 2026-04-14 22:48 | 7.92586 | -72.51060 | 1027 ft | 11 kts | 357° |
| 2026-04-14 22:49 | 7.92669 | -72.51041 | 1030 ft | 11 kts | 16° |
| 2026-04-14 22:49 | 7.92748 | -72.51018 | 1030 ft | 9 kts | 16° |
| 2026-04-14 22:49 | 7.92796 | -72.50975 | 1031 ft | 10 kts | 65° |
| 2026-04-14 22:49 | 7.92834 | -72.50911 | 1031 ft | 11 kts | 47° |
| 2026-04-14 22:50 | 7.92870 | -72.50870 | 1031 ft | 8 kts | 89° |
| 2026-04-14 22:50 | 7.92845 | -72.50811 | 1031 ft | 10 kts | 115° |
| 2026-04-14 22:50 | 7.92813 | -72.50746 | 1031 ft | 8 kts | 117° |
| 2026-04-14 22:50 | 7.92801 | -72.50740 | 1031 ft | 1 kts | 189° |
| 2026-04-14 22:51 | 7.92787 | -72.50748 | 1031 ft | 4 kts | 205° |
| 2026-04-14 22:51 | 7.92764 | -72.50759 | 1031 ft | 2 kts | 206° |
| 2026-04-14 22:51 | 7.92756 | -72.50763 | 1031 ft | 0 kts | 206° |